Time;durP1;ratioP1;P1;durP2;ratioP2;P2;SDS_P1;SDS_P2;PMS_P1;PMS_P2;Temp;Humidity;BMP_temperature;BMP_pressure;BME280_temperature;BME280_humidity;BME280_pressure;Samples;Min_cycle;Max_cycle;Signal;HPM_P1;HPM_P2
2023/12/15 00:00:45;;;;;;;3.90;2.50;;;;;;;0.14;82.38;98674.92;109244;1255;71421;-27
2023/12/15 00:03:13;;;;;;;2.70;2.10;;;;;;;-0.03;83.43;98680.26;109238;1256;59238;-27
2023/12/15 00:05:40;;;;;;;3.20;2.10;;;;;;;0.28;82.85;98687.45;109184;1255;58706;-27
2023/12/15 00:08:08;;;;;;;2.00;1.60;;;;;;;0.62;81.40;98693.61;109219;1256;73819;-27
2023/12/15 00:10:36;;;;;;;2.70;2.10;;;;;;;0.57;81.19;98702.70;109196;1256;73034;-27
2023/12/15 00:13:04;;;;;;;4.20;1.80;;;;;;;0.57;81.31;98708.17;109126;1255;71453;-27
2023/12/15 00:15:31;;;;;;;2.60;2.10;;;;;;;0.39;82.13;98712.04;109133;1257;58824;-27
2023/12/15 00:17:59;;;;;;;4.20;2.70;;;;;;;0.35;82.15;98719.72;109259;1255;59133;-27
2023/12/15 00:20:27;;;;;;;3.20;2.20;;;;;;;0.06;83.07;98722.05;109270;1255;73827;-27
2023/12/15 00:22:54;;;;;;;3.60;2.00;;;;;;;0.37;82.94;98726.34;109217;1255;73100;-27
2023/12/15 00:25:22;;;;;;;3.30;2.40;;;;;;;0.84;80.97;98732.72;109200;1256;71376;-27
2023/12/15 00:27:50;;;;;;;4.40;3.30;;;;;;;0.91;80.52;98735.83;109234;1255;60290;-27
2023/12/15 00:30:17;;;;;;;5.10;3.10;;;;;;;0.54;81.76;98732.92;109150;1257;58825;-27
2023/12/15 00:32:45;;;;;;;3.70;2.40;;;;;;;0.06;84.50;98737.20;109235;1256;73829;-27
2023/12/15 00:35:12;;;;;;;4.90;3.20;;;;;;;0.03;85.18;98740.06;109220;1256;74304;-26
2023/12/15 00:37:40;;;;;;;5.90;3.40;;;;;;;-0.06;85.88;98739.45;109142;1257;72756;-27
2023/12/15 00:40:10;;;;;;;4.00;2.50;;;;;;;0.09;86.15;98746.48;109152;1255;59651;-27
2023/12/15 00:42:37;;;;;;;3.00;2.50;;;;;;;0.63;83.94;98748.23;109053;1255;60021;-26
2023/12/15 00:45:06;;;;;;;4.90;3.10;;;;;;;0.80;82.60;98750.17;109132;1257;72647;-27
2023/12/15 00:47:33;;;;;;;4.80;2.70;;;;;;;0.77;82.78;98748.96;109142;1255;72532;-26
2023/12/15 00:50:03;;;;;;;5.50;3.50;;;;;;;0.66;83.27;98753.19;109200;1256;71330;-27
2023/12/15 00:52:31;;;;;;;7.00;3.50;;;;;;;0.34;84.80;98750.85;109172;1256;59456;-27
2023/12/15 00:54:58;;;;;;;5.30;3.30;;;;;;;0.15;86.98;98753.75;109169;1257;60066;-26
2023/12/15 00:57:26;;;;;;;4.10;2.70;;;;;;;0.66;85.79;98759.73;109190;1256;73860;-26
2023/12/15 00:59:55;;;;;;;4.90;3.20;;;;;;;1.14;83.21;98763.33;109170;1256;74340;-26
2023/12/15 01:02:23;;;;;;;3.90;2.40;;;;;;;1.04;82.99;98769.95;109011;1256;71446;-27
2023/12/15 01:04:50;;;;;;;5.70;3.60;;;;;;;0.80;83.97;98777.67;109107;1257;58752;-26
2023/12/15 01:07:18;;;;;;;5.60;3.50;;;;;;;0.56;85.10;98772.27;109170;1257;58714;-27
2023/12/15 01:09:46;;;;;;;4.50;3.20;;;;;;;0.33;86.21;98769.88;109149;1256;73799;-26
2023/12/15 01:12:14;;;;;;;4.20;3.20;;;;;;;0.38;87.04;98773.73;109207;1256;74315;-26
2023/12/15 01:14:41;;;;;;;2.60;2.00;;;;;;;0.87;85.30;98774.66;109204;1256;72651;-27
2023/12/15 01:17:09;;;;;;;5.50;3.20;;;;;;;1.02;83.75;98767.82;109097;1255;58780;-27
2023/12/15 01:19:37;;;;;;;4.80;2.90;;;;;;;0.87;84.29;98774.82;109170;1255;58897;-27
2023/12/15 01:22:04;;;;;;;5.70;3.30;;;;;;;0.69;85.17;98775.64;109182;1257;71857;-27
2023/12/15 01:24:32;;;;;;;7.40;3.90;;;;;;;0.55;85.80;98774.69;109204;1255;74355;-27
2023/12/15 01:27:00;;;;;;;4.30;3.20;;;;;;;0.35;87.12;98778.33;109190;1256;72762;-26
2023/12/15 01:29:27;;;;;;;5.60;3.20;;;;;;;0.76;86.09;98778.55;109171;1257;59249;-27
2023/12/15 01:31:55;;;;;;;4.70;3.10;;;;;;;1.10;84.08;98777.88;109213;1255;60024;-26
2023/12/15 01:34:23;;;;;;;6.20;3.70;;;;;;;1.03;83.64;98776.81;109143;1255;73941;-26
2023/12/15 01:36:50;;;;;;;6.50;3.50;;;;;;;0.95;84.14;98779.56;109198;1256;74350;-27
2023/12/15 01:39:18;;;;;;;5.40;3.30;;;;;;;0.62;85.67;98776.44;109085;1257;72747;-26
2023/12/15 01:41:46;;;;;;;4.80;3.00;;;;;;;0.44;86.99;98777.23;109128;1257;58857;-27
2023/12/15 01:44:14;;;;;;;5.20;3.30;;;;;;;0.54;87.50;98777.30;109132;1256;58749;-26
2023/12/15 01:46:42;;;;;;;5.90;3.40;;;;;;;1.09;84.90;98778.06;109151;1256;72659;-27
2023/12/15 01:49:09;;;;;;;3.50;2.40;;;;;;;1.18;83.94;98776.84;109091;1257;73213;-27
2023/12/15 01:51:37;;;;;;;4.60;2.70;;;;;;;1.04;84.43;98771.48;109118;1257;72617;-27
2023/12/15 01:54:05;;;;;;;4.70;3.10;;;;;;;0.80;85.39;98772.90;109075;1257;58874;-26
2023/12/15 01:56:33;;;;;;;3.60;2.70;;;;;;;0.58;86.73;98775.46;109156;1256;58830;-27
2023/12/15 01:59:00;;;;;;;4.10;2.60;;;;;;;0.64;87.27;98778.40;109128;1259;72561;-26
2023/12/15 02:01:28;;;;;;;4.20;2.90;;;;;;;1.13;85.16;98777.06;109110;1257;72242;-26
2023/12/15 02:03:56;;;;;;;3.50;2.70;;;;;;;1.11;84.56;98781.09;109120;1257;71433;-27
2023/12/15 02:06:24;;;;;;;3.30;2.60;;;;;;;0.94;85.21;98788.69;109126;1257;59272;-26
2023/12/15 02:08:52;;;;;;;5.00;2.90;;;;;;;0.79;86.02;98795.54;109117;1256;60000;-26
2023/12/15 02:11:20;;;;;;;3.90;2.90;;;;;;;0.52;87.93;98800.48;109104;1256;72683;-26
2023/12/15 02:13:47;;;;;;;4.00;2.70;;;;;;;0.76;87.09;98803.35;109142;1257;73093;-26
2023/12/15 02:16:15;;;;;;;3.50;2.30;;;;;;;1.10;85.43;98808.15;109066;1257;72734;-26
2023/12/15 02:18:43;;;;;;;5.30;2.30;;;;;;;0.83;85.98;98809.18;109122;1257;60128;-26
2023/12/15 02:21:11;;;;;;;3.90;2.20;;;;;;;0.95;85.58;98813.27;109161;1256;60047;-26
2023/12/15 02:23:39;;;;;;;3.00;2.20;;;;;;;0.51;87.35;98812.99;109174;1257;72540;-27
2023/12/15 02:26:07;;;;;;;3.90;2.50;;;;;;;0.39;88.72;98826.29;109106;1256;73086;-26
2023/12/15 02:28:34;;;;;;;2.90;2.20;;;;;;;0.86;86.85;98835.53;109148;1256;72633;-26
2023/12/15 02:31:03;;;;;;;2.90;2.20;;;;;;;1.09;85.17;98842.55;109073;1257;60097;-26
2023/12/15 02:33:30;;;;;;;6.70;2.70;;;;;;;1.17;84.53;98846.47;109112;1257;58738;-26
2023/12/15 02:36:00;;;;;;;3.60;2.20;;;;;;;0.96;85.34;98848.44;109084;1257;73808;-27
2023/12/15 02:38:29;;;;;;;3.20;2.50;;;;;;;0.73;86.53;98853.87;109067;1257;73315;-26
2023/12/15 02:40:59;;;;;;;4.40;2.30;;;;;;;0.62;87.44;98864.27;109008;1257;71350;-27
2023/12/15 02:43:30;;;;;;;3.80;2.40;;;;;;;0.95;86.51;98860.95;109091;1257;58874;-26
2023/12/15 02:46:01;;;;;;;3.00;2.30;;;;;;;1.31;84.67;98873.37;109044;1257;58983;-27
2023/12/15 02:48:33;;;;;;;3.30;2.30;;;;;;;1.14;84.82;98875.98;108977;1257;72874;-27
2023/12/15 02:51:04;;;;;;;2.90;2.20;;;;;;;0.92;86.10;98878.37;109012;1257;74436;-27
2023/12/15 02:54:53;;;;;;;4.40;2.60;;;;;;;0.69;87.31;98889.77;102884;1289;600878;-27
2023/12/15 03:05:00;;;;;;;4.30;2.60;;;;;;;1.30;84.36;98901.79;102610;1292;600198;-25
2023/12/15 03:07:28;;;;;;;4.00;2.50;;;;;;;1.04;85.45;98905.88;105019;1267;61023;-28
2023/12/15 03:09:56;;;;;;;3.10;2.30;;;;;;;0.90;86.01;98914.67;104928;1266;61071;-28
2023/12/15 03:12:23;;;;;;;2.70;2.00;;;;;;;0.95;86.46;98911.36;104845;1265;70676;-28
2023/12/15 03:14:51;;;;;;;3.50;2.50;;;;;;;1.34;84.64;98923.50;104810;1267;72015;-28
2023/12/15 03:24:57;;;;;;;2.90;2.00;;;;;;;0.91;86.20;98949.66;102597;1292;600109;-27
2023/12/15 03:27:25;;;;;;;2.60;2.10;;;;;;;1.09;85.54;98944.45;104783;1269;61184;-27
2023/12/15 03:29:52;;;;;;;2.80;2.20;;;;;;;1.29;84.43;98945.45;104838;1267;61146;-27
2023/12/15 03:32:20;;;;;;;6.20;4.20;;;;;;;1.32;84.16;98950.79;104796;1266;70961;-28
2023/12/15 03:34:48;;;;;;;2.70;2.20;;;;;;;1.22;84.38;98950.05;104837;1266;74285;-28
2023/12/15 03:37:16;;;;;;;3.00;2.10;;;;;;;1.04;85.16;98942.77;104830;1266;72327;-27
2023/12/15 03:39:44;;;;;;;3.70;2.40;;;;;;;0.94;85.62;98943.92;102148;1267;3683758;-27
2023/12/15 03:42:12;;;;;;;3.40;2.30;;;;;;;1.10;85.73;98947.66;105029;1267;61174;-27
2023/12/15 03:44:40;;;;;;;4.40;3.40;;;;;;;1.47;84.01;98955.11;104997;1269;72215;-27
2023/12/15 03:54:57;;;;;;;4.70;2.20;;;;;;;0.95;87.67;98984.02;102571;1297;600134;-25
2023/12/15 03:57:24;;;;;;;5.70;3.30;;;;;;;1.49;85.62;98982.86;104828;1268;61233;-28
2023/12/15 03:59:52;;;;;;;6.30;2.70;;;;;;;1.39;85.88;98983.52;104853;1267;61100;-27
2023/12/15 04:02:20;;;;;;;5.30;3.50;;;;;;;1.53;85.61;98987.85;104866;1271;70962;-27
2023/12/15 04:11:37;;;;;;;4.40;2.70;;;;;;;1.11;88.97;99003.69;102724;1291;600058;-25
2023/12/15 04:21:45;;;;;;;6.80;3.80;;;;;;;1.18;87.55;99015.88;102641;1293;599438;-27
2023/12/15 04:24:12;;;;;;;4.90;3.10;;;;;;;0.94;88.96;99023.55;104883;1269;61165;-27
2023/12/15 04:26:40;;;;;;;4.40;3.10;;;;;;;1.24;88.04;99027.27;104874;1264;61125;-27
2023/12/15 04:29:08;;;;;;;6.30;3.30;;;;;;;1.62;86.03;99030.39;104770;1272;72240;-27
2023/12/15 04:31:36;;;;;;;6.30;3.40;;;;;;;1.61;85.39;99028.36;104824;1273;74348;-27
2023/12/15 04:34:03;;;;;;;6.20;3.40;;;;;;;1.36;86.35;99030.67;104927;1269;72644;-27
2023/12/15 04:44:11;;;;;;;3.80;2.90;;;;;;;1.44;86.82;99046.05;102652;1292;599920;-27
2023/12/15 04:54:19;;;;;;;6.30;3.70;;;;;;;1.16;87.23;99066.58;102721;1289;600197;-27
2023/12/15 04:56:47;;;;;;;8.30;3.80;;;;;;;1.24;87.69;99069.35;105061;1264;61119;-27
2023/12/15 04:59:15;;;;;;;6.30;3.60;;;;;;;1.73;85.27;99070.81;104849;1270;61267;-27
2023/12/15 05:01:44;;;;;;;6.50;3.90;;;;;;;1.72;84.90;99078.38;104859;1264;71242;-26
2023/12/15 05:11:51;;;;;;;8.60;4.80;;;;;;;1.16;88.26;99095.64;102978;1290;600255;-23
2023/12/15 05:14:19;;;;;;;7.00;4.40;;;;;;;1.42;86.52;99100.38;104873;1263;61157;-25
2023/12/15 05:24:27;;;;;;;10.20;4.80;;;;;;;0.97;88.88;99120.19;102650;1289;600381;-23
2023/12/15 05:26:55;;;;;;;6.20;3.90;;;;;;;1.45;87.05;99118.55;105051;1265;61111;-27
2023/12/15 05:37:03;;;;;;;9.80;4.70;;;;;;;1.45;85.88;99128.13;102545;1297;600161;-23
2023/12/15 05:47:11;;;;;;;6.80;4.30;;;;;;;1.88;83.37;99145.80;102621;1293;599422;-23
2023/12/15 05:49:40;;;;;;;9.50;5.10;;;;;;;1.69;83.58;99146.64;104868;1268;61133;-26
2023/12/15 05:52:11;;;;;;;8.70;4.60;;;;;;;1.35;85.29;99149.42;104890;1273;61129;-26
2023/12/15 05:54:42;;;;;;;9.30;4.10;;;;;;;1.09;86.52;99158.35;104780;1267;71049;-26
2023/12/15 06:04:51;;;;;;;5.50;4.00;;;;;;;1.68;83.69;99176.64;102737;1290;599940;-23
2023/12/15 06:15:01;;;;;;;5.10;3.00;;;;;;;1.59;85.13;99198.57;102647;1291;600122;-26
2023/12/15 06:17:29;;;;;;;6.40;3.50;;;;;;;1.51;84.75;99205.09;104869;1270;61202;-25
2023/12/15 06:27:38;;;;;;;7.40;4.20;;;;;;;1.01;88.29;99217.68;102451;1297;599660;-26
2023/12/15 06:30:07;;;;;;;7.40;4.40;;;;;;;1.41;86.30;99223.42;104703;1274;61175;-23
2023/12/15 06:32:35;;;;;;;7.90;4.30;;;;;;;1.64;85.09;99223.03;104647;1276;61310;-26
2023/12/15 06:35:05;;;;;;;8.90;5.10;;;;;;;1.34;86.18;99227.66;104632;1274;72227;-23
2023/12/15 06:37:33;;;;;;;10.10;4.60;;;;;;;1.16;87.40;99234.51;104593;1270;74483;-23
2023/12/15 06:40:05;;;;;;;6.90;4.70;;;;;;;0.98;88.58;99238.98;104018;1273;3975780;-25
2023/12/15 06:42:33;;;;;;;7.80;4.60;;;;;;;1.18;88.85;99247.11;104563;1267;61223;-24
2023/12/15 06:45:07;;;;;;;7.00;4.40;;;;;;;1.65;86.29;99250.52;104638;1267;61720;-24
2023/12/15 06:47:39;;;;;;;8.80;5.50;;;;;;;1.59;86.16;99247.70;104760;1270;61871;-24
2023/12/15 06:50:08;;;;;;;11.20;5.90;;;;;;;1.31;87.25;99250.87;104623;1284;72265;-24
2023/12/15 06:52:36;;;;;;;8.60;5.40;;;;;;;1.19;88.27;99256.63;104522;1273;74366;-24
2023/12/15 06:55:04;;;;;;;13.30;4.80;;;;;;;0.92;89.70;99258.52;104805;1267;74598;-24
2023/12/15 06:57:32;;;;;;;8.60;5.80;;;;;;;1.43;88.45;99264.41;104582;1267;61124;-24
2023/12/15 07:00:00;;;;;;;11.10;5.00;;;;;;;1.53;87.38;99266.40;104545;1270;61082;-24
2023/12/15 07:02:28;;;;;;;9.80;5.90;;;;;;;1.39;87.88;99266.64;104718;1267;73135;-24
2023/12/15 07:04:56;;;;;;;12.00;7.10;;;;;;;1.34;88.06;99268.00;104821;1271;74334;-24
2023/12/15 07:07:24;;;;;;;13.40;7.50;;;;;;;0.97;89.68;99274.09;104792;1268;72726;-24
2023/12/15 07:17:34;;;;;;;11.30;6.00;;;;;;;1.42;87.82;99274.73;102653;1292;600115;-23
2023/12/15 07:20:04;;;;;;;9.30;5.50;;;;;;;1.32;88.00;99276.30;104869;1264;61007;-24
2023/12/15 07:22:31;;;;;;;9.00;5.50;;;;;;;1.04;89.17;99273.27;104871;1269;61091;-25
2023/12/15 07:25:00;;;;;;;8.90;5.20;;;;;;;1.06;90.16;99280.58;104881;1263;72252;-25
2023/12/15 07:27:28;;;;;;;10.10;5.40;;;;;;;1.43;88.24;99285.10;104806;1272;73165;-25
2023/12/15 07:29:55;;;;;;;8.00;5.20;;;;;;;1.62;87.10;99290.34;104861;1272;72686;-25
2023/12/15 07:32:23;;;;;;;12.10;7.00;;;;;;;1.20;88.32;99290.30;102511;1264;3748696;-25
2023/12/15 07:42:30;;;;;;;10.20;5.90;;;;;;;1.47;88.40;99303.29;102714;1290;600041;-25
2023/12/15 07:44:58;;;;;;;12.40;5.90;;;;;;;1.48;87.73;99312.81;105007;1270;61149;-25
2023/12/15 07:47:26;;;;;;;10.10;5.50;;;;;;;1.28;88.55;99314.95;104891;1273;61109;-25
2023/12/15 07:49:54;;;;;;;9.30;5.10;;;;;;;1.24;88.92;99324.00;104913;1270;72012;-25
2023/12/15 08:00:12;;;;;;;13.60;6.90;;;;;;;1.35;88.82;99337.08;102750;1289;602407;-24
2023/12/15 08:02:43;;;;;;;13.80;6.30;;;;;;;1.32;88.92;99347.47;104808;1266;61072;-25
2023/12/15 08:05:11;;;;;;;8.90;5.30;;;;;;;1.16;89.96;99349.30;104668;1265;61074;-25
2023/12/15 08:07:40;;;;;;;12.40;6.40;;;;;;;1.25;90.07;99354.73;104759;1273;72315;-25
2023/12/15 08:10:09;;;;;;;15.10;7.50;;;;;;;1.58;88.40;99363.06;105534;1256;74320;-25
2023/12/15 08:12:37;;;;;;;13.20;6.80;;;;;;;1.39;89.16;99360.55;105386;1256;191778;-25
2023/12/15 08:15:05;;;;;;;14.10;7.30;;;;;;;1.32;89.51;99370.77;105608;1253;61107;-25
2023/12/15 08:25:10;;;;;;;10.00;5.40;;;;;;;1.51;88.66;99375.30;102627;1292;602332;-25
2023/12/15 08:27:40;;;;;;;12.60;5.70;;;;;;;1.36;89.33;99383.42;104811;1266;61232;-25
2023/12/15 08:30:08;;;;;;;14.20;6.60;;;;;;;1.21;89.71;99389.11;104677;1268;61146;-25
2023/12/15 08:32:36;;;;;;;10.70;5.70;;;;;;;1.02;91.18;99394.40;104660;1274;72353;-25
2023/12/15 08:35:04;;;;;;;10.20;5.10;;;;;;;1.33;89.53;99398.92;104699;1268;73022;-25
2023/12/15 08:37:33;;;;;;;9.00;5.50;;;;;;;1.46;89.03;99404.61;104758;1268;72665;-25
2023/12/15 08:47:40;;;;;;;9.00;5.20;;;;;;;1.31;89.86;99418.32;102585;1296;600370;-25
2023/12/15 08:50:08;;;;;;;10.40;5.90;;;;;;;1.80;86.76;99419.89;108721;1264;60762;-23
2023/12/15 08:52:36;;;;;;;11.80;5.50;;;;;;;1.86;85.87;99421.75;108707;1264;60176;-23
2023/12/15 08:55:04;;;;;;;10.00;5.80;;;;;;;1.48;87.36;99423.86;108683;1264;69816;-23
2023/12/15 08:57:32;;;;;;;7.60;5.00;;;;;;;1.36;87.82;99420.70;108794;1263;74504;-24
2023/12/15 09:00:00;;;;;;;10.10;5.40;;;;;;;1.31;88.40;99424.33;108568;1264;71481;-23
2023/12/15 09:02:28;;;;;;;7.20;4.50;;;;;;;2.03;85.64;99420.86;108609;1264;289393;-23
2023/12/15 09:04:56;;;;;;;10.50;4.40;;;;;;;1.92;84.65;99421.68;109180;1257;60014;-23
2023/12/15 09:07:32;;;;;;;7.50;4.80;;;;;;;1.70;84.96;99421.82;109046;1257;74133;-23
2023/12/15 09:10:00;;;;;;;9.00;4.30;;;;;;;1.44;86.06;99427.41;109095;1257;76339;-24
2023/12/15 09:12:28;;;;;;;6.10;3.90;;;;;;;1.50;85.91;99425.85;109170;1257;72609;-24
2023/12/15 09:14:58;;;;;;;5.90;3.60;;;;;;;1.54;85.41;99427.06;109050;1257;59731;-23
2023/12/15 09:17:26;;;;;;;5.70;3.80;;;;;;;1.93;83.56;99430.35;109090;1257;58850;-24
2023/12/15 09:19:54;;;;;;;6.50;3.80;;;;;;;1.99;82.05;99429.94;109159;1257;73051;-23
2023/12/15 09:22:21;;;;;;;7.10;4.10;;;;;;;2.05;81.48;99434.49;109070;1257;76621;-24
2023/12/15 09:24:49;;;;;;;4.50;3.20;;;;;;;1.94;82.00;99440.91;109107;1257;72701;-24
2023/12/15 09:27:16;;;;;;;6.10;3.50;;;;;;;1.95;81.61;99442.63;109119;1256;58687;-24
2023/12/15 09:29:44;;;;;;;5.90;3.80;;;;;;;1.91;81.75;99453.21;109190;1257;59992;-24
2023/12/15 09:32:12;;;;;;;6.10;3.60;;;;;;;1.67;82.72;99458.06;109037;1257;71687;-23
2023/12/15 09:34:40;;;;;;;8.10;3.10;;;;;;;2.38;80.33;99458.54;109127;1256;74282;-24
2023/12/15 09:37:08;;;;;;;4.40;3.10;;;;;;;2.32;79.42;99460.98;109115;1257;71613;-24
2023/12/15 09:39:35;;;;;;;6.40;3.00;;;;;;;2.47;79.08;99460.73;109056;1257;62254;-24
2023/12/15 09:42:03;;;;;;;5.80;3.50;;;;;;;2.44;79.38;99464.45;109012;1257;58805;-24
2023/12/15 09:44:31;;;;;;;5.50;3.20;;;;;;;2.44;79.22;99466.53;109115;1257;71753;-24
2023/12/15 09:46:58;;;;;;;6.40;3.50;;;;;;;2.07;80.05;99463.73;109029;1257;74445;-24
2023/12/15 09:49:27;;;;;;;6.00;3.50;;;;;;;2.08;80.47;99462.98;109026;1257;72687;-25
2023/12/15 09:51:55;;;;;;;6.90;3.80;;;;;;;1.98;80.92;99471.93;109027;1257;61490;-24
2023/12/15 09:54:22;;;;;;;6.60;3.70;;;;;;;2.49;79.81;99478.30;109123;1257;60002;-24
2023/12/15 09:56:50;;;;;;;4.40;2.50;;;;;;;2.85;76.93;99482.15;108783;1257;71953;-25
2023/12/15 09:59:17;;;;;;;5.80;3.60;;;;;;;2.53;76.73;99484.81;108992;1257;74614;-25
2023/12/15 10:01:45;;;;;;;5.50;3.10;;;;;;;2.46;77.27;99494.20;108963;1257;71462;-25
2023/12/15 10:04:13;;;;;;;4.80;3.30;;;;;;;2.38;77.92;99507.54;109072;1257;58752;-25
2023/12/15 10:06:40;;;;;;;5.20;3.30;;;;;;;2.10;78.09;99510.69;109090;1257;62176;-25
2023/12/15 10:09:14;;;;;;;5.70;3.30;;;;;;;1.76;80.27;99513.89;108967;1261;74028;-25
2023/12/15 10:11:46;;;;;;;6.20;3.80;;;;;;;1.60;81.22;99515.32;109066;1257;73238;-25
2023/12/15 10:14:15;;;;;;;6.20;3.90;;;;;;;1.67;81.88;99522.27;109067;1257;72744;-26
2023/12/15 10:16:43;;;;;;;7.80;4.10;;;;;;;2.02;80.29;99524.02;109007;1257;59142;-26
2023/12/15 10:19:11;;;;;;;6.40;3.60;;;;;;;2.17;79.05;99528.23;109069;1257;58739;-26
2023/12/15 10:21:39;;;;;;;6.90;4.20;;;;;;;1.72;80.06;99525.66;109058;1258;75192;-26
2023/12/15 10:24:23;;;;;;;5.90;3.60;;;;;;;1.58;80.93;99533.88;109008;1257;74894;-26
2023/12/15 10:26:51;;;;;;;6.60;3.90;;;;;;;1.57;81.03;99538.55;108950;1257;72708;-26
2023/12/15 10:29:19;;;;;;;4.90;2.90;;;;;;;1.28;81.87;99538.54;109074;1257;61384;-26
2023/12/15 10:31:49;;;;;;;5.60;3.50;;;;;;;1.46;82.08;99537.55;109085;1257;60029;-26
2023/12/15 10:34:27;;;;;;;5.10;2.80;;;;;;;1.89;80.11;99535.84;108993;1257;72963;-26
2023/12/15 10:36:54;;;;;;;5.90;2.50;;;;;;;2.03;79.32;99533.43;108862;1259;74511;-26
2023/12/15 10:39:24;;;;;;;4.50;3.50;;;;;;;1.93;79.84;99534.10;109069;1257;72675;-26
2023/12/15 10:41:52;;;;;;;3.90;2.40;;;;;;;1.59;81.47;99531.61;109065;1257;60403;-26
2023/12/15 10:44:20;;;;;;;5.10;3.30;;;;;;;1.47;82.50;99533.40;108933;1259;62243;-26
2023/12/15 10:46:48;;;;;;;4.60;2.60;;;;;;;1.24;83.92;99536.45;108866;1259;71858;-26
2023/12/15 10:49:15;;;;;;;4.30;3.00;;;;;;;1.64;83.00;99543.05;108990;1259;76555;-26
2023/12/15 10:51:43;;;;;;;4.50;3.20;;;;;;;1.90;81.04;99544.67;109052;1259;72471;-26
2023/12/15 10:54:11;;;;;;;5.20;3.60;;;;;;;1.74;80.87;99545.59;108928;1261;60705;-26
2023/12/15 10:56:39;;;;;;;4.50;3.30;;;;;;;1.32;81.92;99540.96;108922;1258;61471;-26
2023/12/15 10:59:07;;;;;;;5.40;3.80;;;;;;;1.30;82.63;99547.89;109108;1257;73155;-26
2023/12/15 11:01:35;;;;;;;8.10;4.30;;;;;;;0.79;83.98;99540.71;108985;1259;76633;-26
2023/12/15 11:04:21;;;;;;;4.50;3.30;;;;;;;0.77;83.94;99547.60;108925;1260;71676;-26
2023/12/15 11:06:49;;;;;;;6.30;3.60;;;;;;;1.04;83.23;99549.77;108909;1259;61187;-26
2023/12/15 11:09:31;;;;;;;4.80;3.50;;;;;;;1.23;81.85;99554.96;109015;1259;59224;-26
2023/12/15 11:12:28;;;;;;;5.30;3.30;;;;;;;1.37;80.91;99565.23;108888;1259;73160;-26
2023/12/15 11:14:59;;;;;;;5.40;3.60;;;;;;;1.04;81.08;99560.73;108916;1259;75883;-27
2023/12/15 11:17:27;;;;;;;4.50;3.20;;;;;;;0.99;81.81;99572.52;108807;1259;72680;-26
2023/12/15 11:20:10;;;;;;;6.00;3.60;;;;;;;1.00;81.93;99572.15;108984;1258;60880;-26
2023/12/15 11:22:50;;;;;;;5.70;3.70;;;;;;;1.29;80.80;99573.23;108867;1259;59031;-26
2023/12/15 11:25:19;;;;;;;5.00;3.90;;;;;;;1.45;80.00;99581.07;108965;1259;73084;-27
2023/12/15 11:28:00;;;;;;;11.70;3.40;;;;;;;1.32;80.31;99579.30;108815;1259;74313;-26
2023/12/15 11:30:34;;;;;;;5.10;3.30;;;;;;;1.21;80.81;99592.14;108992;1258;71756;-26
2023/12/15 11:33:36;;;;;;;4.60;3.50;;;;;;;1.02;80.77;99589.86;108853;1259;59223;-26
2023/12/15 11:36:06;;;;;;;4.80;3.20;;;;;;;0.64;82.13;99601.50;108986;1259;59807;-26
2023/12/15 11:38:35;;;;;;;7.10;4.30;;;;;;;0.70;82.41;99605.42;108857;1259;75329;-26
2023/12/15 11:41:03;;;;;;;7.60;5.00;;;;;;;0.88;81.63;99614.77;109039;1259;74284;-26
2023/12/15 11:43:31;;;;;;;7.10;4.90;;;;;;;0.60;80.74;99610.18;108974;1259;74720;-26
2023/12/15 11:45:59;;;;;;;6.10;3.70;;;;;;;0.40;81.52;99619.34;109052;1258;60238;-26
2023/12/15 11:48:27;;;;;;;5.20;3.70;;;;;;;0.47;81.50;99626.63;109065;1258;58828;-26
2023/12/15 11:50:56;;;;;;;5.00;3.60;;;;;;;0.47;81.17;99629.55;109097;1259;73456;-26
2023/12/15 11:53:23;;;;;;;13.20;5.40;;;;;;;0.26;81.47;99638.69;108979;1259;75440;-26
2023/12/15 11:55:51;;;;;;;7.00;4.10;;;;;;;0.35;81.73;99641.86;108959;1259;71437;-26
2023/12/15 11:58:19;;;;;;;6.70;4.00;;;;;;;0.67;80.41;99644.14;108828;1259;60019;-26
2023/12/15 12:00:47;;;;;;;6.90;3.00;;;;;;;0.85;78.51;99646.66;109070;1259;58777;-26
2023/12/15 12:03:16;;;;;;;5.10;3.50;;;;;;;0.76;78.64;99650.18;108976;1259;73055;-26
2023/12/15 12:05:53;;;;;;;4.60;2.90;;;;;;;0.78;78.66;99652.52;108961;1259;74374;-26
2023/12/15 12:08:22;;;;;;;3.40;2.30;;;;;;;0.50;79.90;99658.83;109047;1259;72614;-26
2023/12/15 12:10:54;;;;;;;5.10;3.30;;;;;;;0.53;79.74;99663.88;108911;1259;59832;-26
2023/12/15 12:13:22;;;;;;;6.20;3.70;;;;;;;0.67;79.97;99662.43;108811;1259;58736;-26
2023/12/15 12:15:54;;;;;;;6.20;3.50;;;;;;;0.75;78.97;99668.00;108832;1259;73086;-26
2023/12/15 12:18:23;;;;;;;4.80;2.70;;;;;;;0.97;78.39;99674.33;108943;1259;73084;-26
2023/12/15 12:20:54;;;;;;;4.00;3.10;;;;;;;1.08;75.57;99676.71;108952;1259;74767;-25
2023/12/15 12:23:27;;;;;;;4.60;3.10;;;;;;;0.25;74.47;99680.42;108799;1261;58780;-26
2023/12/15 12:26:09;;;;;;;3.80;2.70;;;;;;;-0.20;75.47;99685.92;108963;1259;60026;-26
2023/12/15 12:28:41;;;;;;;3.40;2.60;;;;;;;-0.22;75.45;99688.52;109098;1259;73000;-26
2023/12/15 12:31:09;;;;;;;3.50;2.40;;;;;;;-0.11;74.54;99684.48;108942;1259;74225;-26
2023/12/15 12:33:37;;;;;;;3.10;2.20;;;;;;;-0.21;72.58;99685.10;108981;1259;73003;-25
2023/12/15 12:36:06;;;;;;;2.00;1.50;;;;;;;-0.32;71.28;99685.73;108901;1260;59656;-28
2023/12/15 12:38:35;;;;;;;2.30;1.60;;;;;;;-0.25;70.75;99697.34;109004;1259;58982;-26
2023/12/15 12:41:05;;;;;;;4.50;2.60;;;;;;;-0.38;69.97;99699.20;108959;1259;74589;-26
2023/12/15 12:43:33;;;;;;;4.80;2.40;;;;;;;-0.57;70.53;99706.84;108884;1259;74344;-25
2023/12/15 12:46:01;;;;;;;10.30;3.70;;;;;;;-0.60;70.60;99714.57;108912;1259;71802;-26
2023/12/15 12:48:30;;;;;;;4.00;2.80;;;;;;;-0.65;70.59;99717.43;108964;1259;58860;-26
2023/12/15 12:50:58;;;;;;;19.40;5.20;;;;;;;-0.67;71.11;99719.38;108960;1259;62092;-26
2023/12/15 12:53:27;;;;;;;3.90;1.90;;;;;;;-0.34;71.29;99731.33;108950;1259;74012;-25
2023/12/15 12:55:54;;;;;;;3.30;2.10;;;;;;;-0.03;68.74;99736.70;108974;1259;75488;-25
2023/12/15 12:58:22;;;;;;;4.60;2.30;;;;;;;-0.06;69.32;99740.33;109038;1259;70948;-26
2023/12/15 13:00:51;;;;;;;2.80;2.20;;;;;;;-0.02;69.24;99743.48;108934;1259;58883;-26
2023/12/15 13:03:19;;;;;;;3.40;2.10;;;;;;;-0.12;69.31;99744.77;108921;1259;62269;-26
2023/12/15 13:05:48;;;;;;;4.00;1.90;;;;;;;0.06;69.66;99750.09;108892;1259;73665;-25
2023/12/15 13:08:15;;;;;;;2.80;1.80;;;;;;;0.07;70.17;99758.79;109048;1259;74339;-25
2023/12/15 13:10:43;;;;;;;1.60;1.40;;;;;;;-0.03;70.01;99759.39;108924;1259;72505;-25
2023/12/15 13:13:12;;;;;;;2.30;2.00;;;;;;;-0.16;70.54;99766.55;108904;1259;60009;-26
2023/12/15 13:15:41;;;;;;;1.50;1.10;;;;;;;-0.26;70.54;99762.00;109078;1259;58736;-26
2023/12/15 13:18:09;;;;;;;2.30;1.90;;;;;;;-0.41;70.92;99759.31;108957;1259;75872;-26
2023/12/15 13:20:38;;;;;;;2.00;1.60;;;;;;;-0.60;70.73;99758.59;109074;1259;74234;-26
2023/12/15 13:23:10;;;;;;;1.90;1.20;;;;;;;-0.57;71.19;99762.27;108914;1264;73355;-25
2023/12/15 13:25:38;;;;;;;1.70;1.10;;;;;;;-0.07;70.02;99762.91;109056;1259;59340;-25
2023/12/15 13:28:06;;;;;;;1.70;1.40;;;;;;;0.28;68.79;99770.86;109032;1259;62346;-26
2023/12/15 13:30:34;;;;;;;2.30;1.10;;;;;;;0.33;68.98;99773.11;109040;1259;76096;-26
2023/12/15 13:33:02;;;;;;;2.50;1.60;;;;;;;0.24;69.62;99780.02;109058;1259;73192;-25
2023/12/15 13:35:30;;;;;;;1.80;1.50;;;;;;;-0.20;70.29;99785.77;108915;1260;72705;-26
2023/12/15 13:37:58;;;;;;;3.50;2.00;;;;;;;-0.18;70.97;99791.35;108971;1259;58854;-25
2023/12/15 13:40:26;;;;;;;2.00;1.80;;;;;;;-0.26;71.39;99789.33;108917;1260;61493;-26
2023/12/15 13:42:54;;;;;;;3.20;2.30;;;;;;;-0.37;71.34;99787.38;108956;1260;73844;-25
2023/12/15 13:45:25;;;;;;;2.60;2.20;;;;;;;-0.63;71.94;99789.19;108831;1260;73168;-26
2023/12/15 13:47:53;;;;;;;3.70;2.40;;;;;;;-0.70;72.91;99791.73;108870;1259;72658;-25
2023/12/15 13:50:25;;;;;;;4.10;2.60;;;;;;;-0.82;72.61;99794.40;108893;1260;60823;-25
2023/12/15 13:52:53;;;;;;;3.80;1.70;;;;;;;-0.78;72.46;99798.22;108923;1260;61690;-25
2023/12/15 13:55:20;;;;;;;2.50;1.80;;;;;;;-0.00;70.64;99802.50;108994;1259;75812;-26
2023/12/15 13:57:50;;;;;;;2.30;1.80;;;;;;;0.13;68.54;99799.60;108924;1260;74560;-26
2023/12/15 14:00:19;;;;;;;2.90;1.90;;;;;;;0.03;68.58;99802.59;108801;1259;73713;-25
2023/12/15 14:02:47;;;;;;;3.10;2.00;;;;;;;-0.31;69.60;99806.86;108902;1260;61312;-25
2023/12/15 14:05:15;;;;;;;2.90;2.10;;;;;;;-0.45;69.66;99800.01;108943;1260;62073;-25